Little Rock AFB, AR

7:48 PM CDT on September 19, 2017 (GMT -0500)
Little Rock Air Force Base

Weather History for KLRF - November, 2013

Change the Weather History Date:

Saturday, November 16, 2013

  Actual Average Record
Temperature  
Mean Temperature 63 °F -  
Max Temperature 71 °F 61 °F 83 °F (1965)
Min Temperature 55 °F 38 °F 21 °F (1970)
Degree Days  
Heating Degree Days 2    
Growing Degree Days 13 (Base 50)    
Moisture  
Dew Point 59 °F    
Average Humidity 91    
Maximum Humidity 100    
Minimum Humidity 78    
Precipitation  
Precipitation 0.04 in - - ()
Sea Level Pressure  
Sea Level Pressure 29.90 in    
Wind  
Wind Speed 7 mph (SSE)    
Max Wind Speed 14 mph    
Max Gust Speed 26 mph    
Visibility 6 miles    
Events Fog    
Averages and records for this station are not official NWS values.
T = Trace of Precipitation, MM = Missing Value Source: NWS Daily Summary

Daily Weather History Graph

Daily Weather History Graph

Search for Another Location

Airport or City:

Trip Planner

Search our weather history database for the weather conditions in past years. The results will help you decide how hot, cold, wet, or windy it might be!

Date:

Astronomy

Nov. 16, 2013 Rise Set
Actual Time 6:44 AM CST 5:02 PM CST
Civil Twilight 6:17 AM CST 5:29 PM CST
Nautical Twilight 5:46 AM CST 5:59 PM CST
Astronomical Twilight 5:16 AM CST 6:29 PM CST
Moon 4:36 PM CST (11/16) 5:42 AM CST (11/16)
Length of Visible Light 11h 12m
Length of Day
10h 18m
Waxing Gibbous, 99% of the Moon is Illuminated
Nov 16
Waxing Gibbous
Nov 17
Full
Nov 25
Last Quarter
Dec 2
New
Dec 9
First Quarter

Hourly Weather History & Observations

Time (CST) Temp. Dew Point Humidity Pressure Visibility Wind Dir Wind Speed Gust Speed Precip Events Conditions
12:58 AM 55.0 °F 52.5 °F 91% 29.99 in 10.0 mi SE 2.3 mph - N/A   Mostly Cloudy
1:58 AM 56.3 °F 54.1 °F 92% 29.98 in 10.0 mi SSE 4.6 mph - N/A   Overcast
2:58 AM 56.3 °F 54.5 °F 94% 29.98 in 10.0 mi SSE 3.5 mph - N/A   Mostly Cloudy
3:58 AM 56.1 °F 54.5 °F 94% 29.96 in 10.0 mi SE 8.1 mph - N/A   Scattered Clouds
4:33 AM 55.4 °F 55.4 °F 100% 29.95 in 10.0 mi SE 8.1 mph - N/A   Mostly Cloudy
4:38 AM 57.2 °F 55.4 °F 94% 29.95 in 10.0 mi SE 8.1 mph - N/A   Mostly Cloudy
4:40 AM 57.2 °F 55.4 °F 94% 29.95 in 10.0 mi SE 8.1 mph - N/A   Mostly Cloudy
4:50 AM 57.2 °F 55.4 °F 94% 29.95 in 10.0 mi SSE 9.2 mph - N/A   Overcast
4:58 AM 56.8 °F 55.8 °F 96% 29.96 in 10.0 mi SSE 9.2 mph - N/A   Overcast
5:03 AM 57.2 °F 55.4 °F 94% 29.95 in 10.0 mi SSE 8.1 mph - N/A   Overcast
5:33 AM 57.2 °F 55.4 °F 94% 29.95 in 9.0 mi SE 6.9 mph - N/A   Overcast
5:58 AM 57.0 °F 56.5 °F 98% 29.97 in 5.0 mi SSE 5.8 mph - N/A   Overcast
6:13 AM 57.2 °F 57.2 °F 100% 29.96 in 2.0 mi SE 8.1 mph - N/A   Overcast
6:18 AM 57.2 °F 57.2 °F 100% 29.96 in 1.8 mi SE 8.1 mph - N/A   Overcast
6:38 AM 57.2 °F 55.4 °F 94% 29.96 in 2.0 mi SE 8.1 mph - N/A   Overcast
6:43 AM 57.2 °F 55.4 °F 94% 29.97 in 1.5 mi SE 6.9 mph - N/A   Overcast
6:48 AM 57.2 °F 55.4 °F 94% 29.97 in 1.0 mi Variable 5.8 mph - N/A   Overcast
6:58 AM 56.5 °F 56.1 °F 99% 29.98 in 1.0 mi SE 6.9 mph - N/A   Overcast
7:03 AM 57.2 °F 55.4 °F 94% 29.97 in 0.8 mi SSE 6.9 mph - N/A   Overcast
7:13 AM 57.2 °F 55.4 °F 94% 29.97 in 0.8 mi SSE 8.1 mph - N/A   Overcast
7:18 AM 57.2 °F 55.4 °F 94% 29.97 in 0.8 mi SSE 5.8 mph - N/A   Overcast
7:28 AM 57.2 °F 55.4 °F 94% 29.97 in 0.5 mi SE 8.1 mph - N/A Fog Fog
7:33 AM 57.2 °F 55.4 °F 94% 29.97 in 0.5 mi SE 5.8 mph - N/A Fog Fog
7:38 AM 57.2 °F 55.4 °F 94% 29.96 in 0.5 mi SE 6.9 mph - N/A Fog Fog
7:58 AM 56.1 °F 55.8 °F 99% 29.98 in 0.5 mi SE 9.2 mph - N/A Fog Fog
8:23 AM 55.4 °F 55.4 °F 100% 29.96 in 0.5 mi SE 8.1 mph - N/A Fog Fog
8:58 AM 56.5 °F 56.1 °F 99% 29.97 in 0.5 mi SE 6.9 mph - N/A Fog Fog
9:03 AM 57.2 °F 55.4 °F 94% 29.97 in 0.5 mi SSE 4.6 mph - N/A Fog Fog
9:08 AM 57.2 °F 57.2 °F 100% 29.96 in 0.8 mi SSE 5.8 mph - N/A   Overcast
9:23 AM 57.2 °F 57.2 °F 100% 29.96 in 1.0 mi SSE 5.8 mph - N/A   Overcast
9:28 AM 57.2 °F 57.2 °F 100% 29.96 in 1.5 mi SE 4.6 mph - N/A   Overcast
9:33 AM 57.2 °F 57.2 °F 100% 29.96 in 1.8 mi SSE 9.2 mph - N/A   Overcast
9:43 AM 57.2 °F 57.2 °F 100% 29.96 in 2.0 mi SE 6.9 mph - N/A   Overcast
9:48 AM 57.2 °F 57.2 °F 100% 29.96 in 1.8 mi SE 8.1 mph - N/A   Overcast
9:58 AM 57.6 °F 57.4 °F 99% 29.97 in 1.5 mi Variable 5.8 mph - N/A   Overcast
10:03 AM 57.2 °F 57.2 °F 100% 29.96 in 1.8 mi ESE 6.9 mph - N/A   Overcast
10:08 AM 57.2 °F 57.2 °F 100% 29.96 in 2.5 mi SE 5.8 mph - N/A   Overcast
10:18 AM 59.0 °F 57.2 °F 94% 29.95 in 3.0 mi Variable 4.6 mph - N/A   Overcast
10:58 AM 59.2 °F 58.8 °F 99% 29.96 in 3.0 mi SE 4.6 mph - N/A   Overcast
11:08 AM 59.0 °F 59.0 °F 100% 29.94 in 2.5 mi SE 5.8 mph - N/A   Overcast
11:18 AM 59.0 °F 59.0 °F 100% 29.94 in 3.0 mi SE 5.8 mph - N/A   Overcast
11:53 AM 60.8 °F 60.8 °F 100% 29.92 in 10.0 mi Variable 2.3 mph - N/A   Overcast
11:58 AM 60.6 °F 60.4 °F 99% 29.92 in 10.0 mi SE 4.6 mph - N/A   Overcast
12:28 PM 62.6 °F 60.8 °F 94% 29.89 in 10.0 mi Variable 3.5 mph - N/A   Overcast
12:58 PM 65.3 °F 61.0 °F 86% 29.87 in 10.0 mi South 12.7 mph 16.1 mph N/A   Overcast
1:03 PM 66.2 °F 60.8 °F 83% 29.86 in 10.0 mi South 12.7 mph 18.4 mph N/A   Overcast
1:58 PM 68.0 °F 61.3 °F 79% 29.86 in 10.0 mi SSW 12.7 mph 18.4 mph N/A   Overcast
2:28 PM 68.0 °F 60.8 °F 78% 29.83 in 10.0 mi SSW 12.7 mph 24.2 mph N/A   Mostly Cloudy
2:38 PM 68.0 °F 60.8 °F 78% 29.83 in 10.0 mi SSW 12.7 mph 25.3 mph N/A   Overcast
2:48 PM 68.0 °F 60.8 °F 78% 29.83 in 10.0 mi South 10.4 mph 18.4 mph N/A   Overcast
2:53 PM 68.0 °F 60.8 °F 78% 29.82 in 10.0 mi South 10.4 mph - N/A   Overcast
2:58 PM 68.0 °F 61.5 °F 80% 29.83 in 10.0 mi South 10.4 mph - N/A   Overcast
3:03 PM 68.0 °F 60.8 °F 78% 29.81 in 10.0 mi South 10.4 mph - N/A   Overcast
3:08 PM 68.0 °F 60.8 °F 78% 29.81 in 10.0 mi South 8.1 mph - N/A   Overcast
3:28 PM 68.0 °F 60.8 °F 78% 29.82 in 10.0 mi South 5.8 mph - N/A   Overcast
3:58 PM 68.5 °F 61.9 °F 79% 29.83 in 10.0 mi South 9.2 mph - N/A   Overcast
4:43 PM 68.0 °F 62.6 °F 83% 29.81 in 10.0 mi South 8.1 mph - N/A   Overcast
4:58 PM 68.4 °F 62.8 °F 82% 29.82 in 10.0 mi South 10.4 mph - N/A   Overcast
5:18 PM 68.0 °F 62.6 °F 83% 29.81 in 10.0 mi South 11.5 mph - N/A   Overcast
5:58 PM 68.2 °F 63.9 °F 86% 29.82 in 10.0 mi South 8.1 mph - N/A   Overcast
6:58 PM 68.5 °F 64.9 °F 88% 29.83 in 10.0 mi South 6.9 mph - N/A   Overcast
7:58 PM 68.9 °F 65.3 °F 88% 29.82 in 10.0 mi South 5.8 mph - N/A   Overcast
8:58 PM 68.7 °F 65.5 °F 89% 29.82 in 10.0 mi SSE 5.8 mph - N/A   Overcast
9:28 PM 69.8 °F 66.2 °F 88% 29.81 in 10.0 mi South 8.1 mph - N/A   Overcast
9:58 PM 70.9 °F 65.7 °F 83% 29.81 in 10.0 mi South 8.1 mph - N/A   Overcast
10:33 PM 71.6 °F 66.2 °F 83% 29.80 in 10.0 mi South 12.7 mph 20.7 mph N/A   Overcast
10:38 PM 71.6 °F 66.2 °F 83% 29.79 in 10.0 mi South 11.5 mph 20.7 mph N/A   Mostly Cloudy
10:58 PM 71.4 °F 65.7 °F 82% 29.80 in 10.0 mi South 13.8 mph 26.5 mph N/A   Overcast
11:33 PM 71.6 °F 66.2 °F 83% 29.78 in 10.0 mi South 12.7 mph 25.3 mph N/A   Overcast
11:38 PM 71.6 °F 66.2 °F 83% 29.78 in 10.0 mi South 12.7 mph 19.6 mph N/A   Overcast
11:53 PM 71.6 °F 66.2 °F 83% 29.78 in 10.0 mi South 11.5 mph 25.3 mph N/A   Overcast
11:58 PM 70.7 °F 65.8 °F 85% 29.79 in 10.0 mi South 9.2 mph 25.3 mph 0.04 in   Overcast